createdAt,value
2022-11-10T00:01:06.840Z,9.70
2022-11-10T00:03:34.712Z,9.70
2022-11-10T00:06:03.450Z,9.70
2022-11-10T00:08:30.730Z,9.70
2022-11-10T00:10:57.817Z,9.60
2022-11-10T00:13:31.206Z,9.60
2022-11-10T00:16:22.471Z,9.50
2022-11-10T00:18:49.235Z,9.40
2022-11-10T00:21:17.078Z,9.40
2022-11-10T00:23:45.147Z,9.30
2022-11-10T00:26:20.024Z,9.20
2022-11-10T00:28:47.061Z,9.20
2022-11-10T00:31:13.914Z,9.10
2022-11-10T00:33:43.071Z,9.10
2022-11-10T00:36:10.324Z,9.10
2022-11-10T00:38:37.102Z,9.00
2022-11-10T00:41:04.378Z,9.00
2022-11-10T00:43:31.802Z,9.00
2022-11-10T00:45:58.948Z,9.00
2022-11-10T00:48:25.719Z,9.00
2022-11-10T00:50:52.935Z,9.10
2022-11-10T00:53:20.035Z,9.00
2022-11-10T00:55:47.118Z,9.20
2022-11-10T00:58:13.844Z,9.10
2022-11-10T01:00:40.899Z,9.30
2022-11-10T01:03:07.663Z,9.20
2022-11-10T01:05:38.397Z,9.30
2022-11-10T01:08:05.506Z,9.30
2022-11-10T01:10:32.451Z,9.30
2022-11-10T01:12:59.345Z,9.30
2022-11-10T01:15:28.036Z,9.40
2022-11-10T01:17:56.332Z,9.50
2022-11-10T01:20:24.085Z,9.50
2022-11-10T01:22:50.856Z,9.60
2022-11-10T01:25:17.650Z,9.50
2022-11-10T01:27:44.330Z,9.50
2022-11-10T01:30:11.545Z,9.40
2022-11-10T01:32:38.449Z,9.40
2022-11-10T01:35:05.825Z,9.40
2022-11-10T01:37:32.544Z,9.50
2022-11-10T01:39:59.785Z,9.50
2022-11-10T01:42:29.148Z,9.50
2022-11-10T01:45:39.729Z,9.50
2022-11-10T01:48:08.806Z,9.60
2022-11-10T01:50:39.483Z,9.60
2022-11-10T01:53:10.617Z,9.60
2022-11-10T01:55:41.719Z,9.60
2022-11-10T01:58:09.366Z,9.60
2022-11-10T02:00:36.243Z,9.50
2022-11-10T02:03:06.031Z,9.50
2022-11-10T02:05:33.141Z,9.50
2022-11-10T02:08:00.696Z,9.50
2022-11-10T02:10:27.549Z,9.50
2022-11-10T02:12:54.243Z,9.50
2022-11-10T02:15:21.233Z,9.50
2022-11-10T02:17:48.763Z,9.50
2022-11-10T02:20:20.685Z,9.50
2022-11-10T02:22:47.730Z,9.60
2022-11-10T02:25:20.590Z,9.50
2022-11-10T02:27:47.422Z,9.50
2022-11-10T02:30:15.552Z,9.60
2022-11-10T02:32:42.236Z,9.60
2022-11-10T02:35:09.424Z,9.50
2022-11-10T02:37:36.277Z,9.40
2022-11-10T02:40:03.580Z,9.40
2022-11-10T02:42:30.326Z,9.40
2022-11-10T02:44:57.627Z,9.40
2022-11-10T02:47:24.432Z,9.40
2022-11-10T02:49:51.175Z,9.40
2022-11-10T02:52:17.876Z,9.40
2022-11-10T02:54:44.597Z,9.40
2022-11-10T02:57:11.324Z,9.50
2022-11-10T02:59:38.009Z,9.50
2022-11-10T03:02:04.787Z,9.50
2022-11-10T03:04:31.472Z,9.40
2022-11-10T03:06:58.218Z,9.50
2022-11-10T03:09:25.012Z,9.40
2022-11-10T03:11:51.773Z,9.40
2022-11-10T03:14:18.560Z,9.40
2022-11-10T03:16:45.267Z,9.30
2022-11-10T03:19:11.972Z,9.30
2022-11-10T03:21:38.728Z,9.30
2022-11-10T03:24:05.772Z,9.30
2022-11-10T03:26:32.508Z,9.30
2022-11-10T03:28:59.227Z,9.30
2022-11-10T03:31:25.973Z,9.20
2022-11-10T03:33:52.669Z,9.20
2022-11-10T03:36:19.342Z,9.20
2022-11-10T03:38:46.190Z,9.20
2022-11-10T03:41:19.177Z,9.10
2022-11-10T03:43:47.677Z,9.10
2022-11-10T03:46:14.628Z,9.00
2022-11-10T03:48:41.319Z,9.00
2022-11-10T03:51:08.149Z,9.00
2022-11-10T03:53:34.827Z,9.00
2022-11-10T03:56:02.565Z,9.00
2022-11-10T03:58:29.352Z,9.10
2022-11-10T04:00:56.501Z,9.20
2022-11-10T04:03:24.367Z,9.30
2022-11-10T04:06:10.572Z,9.30
2022-11-10T04:08:55.907Z,9.30
2022-11-10T04:11:41.358Z,9.20
2022-11-10T04:14:26.709Z,9.20
2022-11-10T04:16:53.449Z,9.20
2022-11-10T04:19:20.283Z,9.10
2022-11-10T04:21:47.021Z,9.10
2022-11-10T04:24:13.729Z,9.10
2022-11-10T04:26:42.722Z,9.00
2022-11-10T04:29:11.059Z,9.00
2022-11-10T04:31:41.638Z,8.90
2022-11-10T04:34:11.254Z,8.90
2022-11-10T04:36:40.980Z,8.90
2022-11-10T04:39:08.430Z,8.90
2022-11-10T04:41:35.864Z,8.90
2022-11-10T04:44:03.038Z,8.80
2022-11-10T04:46:38.201Z,8.60
2022-11-10T04:49:06.251Z,8.70
2022-11-10T04:51:38.886Z,8.70
2022-11-10T04:54:07.160Z,8.70
2022-11-10T04:56:34.849Z,8.60
2022-11-10T04:59:01.919Z,8.60
2022-11-10T05:01:28.969Z,8.70
2022-11-10T05:03:56.446Z,8.70
2022-11-10T05:06:23.560Z,8.60
2022-11-10T05:08:50.924Z,8.60
2022-11-10T05:11:17.901Z,8.60
2022-11-10T05:13:45.388Z,8.60
2022-11-10T05:16:13.116Z,8.70
2022-11-10T05:18:40.626Z,8.60
2022-11-10T05:21:07.488Z,8.60
2022-11-10T05:23:40.381Z,8.50
2022-11-10T05:26:13.739Z,8.50
2022-11-10T05:28:42.004Z,8.50
2022-11-10T05:31:09.494Z,8.50
2022-11-10T05:33:36.921Z,8.50
2022-11-10T05:36:04.602Z,8.40
2022-11-10T05:38:31.498Z,8.40
2022-11-10T05:40:58.288Z,8.50
2022-11-10T05:43:25.536Z,8.50
2022-11-10T05:45:52.717Z,8.50
2022-11-10T05:48:19.570Z,8.60
2022-11-10T05:50:46.280Z,8.50
2022-11-10T05:53:13.224Z,8.60
2022-11-10T05:55:39.949Z,8.50
2022-11-10T05:58:07.452Z,8.50
2022-11-10T06:00:35.500Z,8.60
2022-11-10T06:03:14.949Z,8.50
2022-11-10T06:05:41.882Z,8.50
2022-11-10T06:08:09.084Z,8.50
2022-11-10T06:10:36.737Z,8.50
2022-11-10T06:13:04.468Z,8.50
2022-11-10T06:15:31.749Z,8.40
2022-11-10T06:17:58.621Z,8.40
2022-11-10T06:20:26.088Z,8.40
2022-11-10T06:23:06.270Z,8.40
2022-11-10T06:25:35.320Z,8.40
2022-11-10T06:28:02.734Z,8.40
2022-11-10T06:30:31.064Z,8.40
2022-11-10T06:32:57.908Z,8.50
2022-11-10T06:35:25.717Z,8.40
2022-11-10T06:38:02.438Z,8.40
2022-11-10T06:40:30.199Z,8.50
2022-11-10T06:42:57.637Z,8.50
2022-11-10T06:45:25.004Z,8.50
2022-11-10T06:48:02.996Z,8.50
2022-11-10T06:50:29.798Z,8.50
2022-11-10T06:52:58.169Z,8.60
2022-11-10T06:55:25.112Z,8.60
2022-11-10T06:57:51.900Z,8.60
2022-11-10T07:00:18.904Z,8.60
2022-11-10T07:02:45.729Z,8.60
2022-11-10T07:05:12.425Z,8.60
2022-11-10T07:07:39.238Z,8.60
2022-11-10T07:10:07.424Z,8.60
2022-11-10T07:12:34.609Z,8.60
2022-11-10T07:15:01.332Z,8.70
2022-11-10T07:17:28.109Z,8.70
2022-11-10T07:19:54.869Z,8.70
2022-11-10T07:22:21.654Z,8.80
2022-11-10T07:24:48.443Z,8.70
2022-11-10T07:27:15.190Z,8.80
2022-11-10T07:29:41.942Z,8.90
2022-11-10T07:32:08.634Z,9.00
2022-11-10T07:34:35.371Z,9.00
2022-11-10T07:37:02.165Z,9.10
2022-11-10T07:39:28.918Z,9.20
2022-11-10T07:41:56.029Z,9.30
2022-11-10T07:44:22.725Z,9.30
2022-11-10T07:46:49.496Z,9.30
2022-11-10T07:49:16.238Z,9.40
2022-11-10T07:51:43.868Z,9.50
2022-11-10T07:54:10.754Z,9.50
2022-11-10T07:56:37.527Z,9.60
2022-11-10T07:59:04.338Z,9.70
2022-11-10T08:01:31.378Z,9.80
2022-11-10T08:04:01.270Z,9.80
2022-11-10T08:06:29.300Z,9.80
2022-11-10T08:08:58.171Z,9.90
2022-11-10T08:11:24.981Z,9.90
2022-11-10T08:13:51.690Z,10.00
2022-11-10T08:16:18.881Z,10.10
2022-11-10T08:18:45.645Z,10.20
2022-11-10T08:21:12.399Z,10.30
2022-11-10T08:23:39.364Z,10.40
2022-11-10T08:26:06.156Z,10.60
2022-11-10T08:28:32.933Z,10.60
2022-11-10T08:31:05.564Z,10.70
2022-11-10T08:33:33.076Z,10.80
2022-11-10T08:36:01.626Z,10.80
2022-11-10T08:38:28.484Z,10.90
2022-11-10T08:40:57.505Z,11.00
2022-11-10T08:43:24.889Z,11.10
2022-11-10T08:45:56.333Z,11.20
2022-11-10T08:48:23.705Z,11.30
2022-11-10T08:50:51.601Z,11.40
2022-11-10T08:53:21.378Z,11.50
2022-11-10T08:55:49.195Z,11.70
2022-11-10T08:58:22.399Z,11.80
2022-11-10T09:00:49.523Z,11.90
2022-11-10T09:03:21.613Z,12.00
2022-11-10T09:05:55.067Z,12.00
2022-11-10T09:08:24.750Z,12.20
2022-11-10T09:10:51.621Z,12.20
2022-11-10T09:13:26.046Z,12.30
2022-11-10T09:15:56.741Z,12.40
2022-11-10T09:18:23.650Z,12.40
2022-11-10T09:20:50.420Z,12.50
2022-11-10T09:23:19.193Z,12.60
2022-11-10T09:25:51.453Z,12.70
2022-11-10T09:28:19.586Z,12.80
2022-11-10T09:30:48.276Z,12.70
2022-11-10T09:33:15.058Z,12.80
2022-11-10T09:35:42.955Z,12.90
2022-11-10T09:38:10.366Z,13.00
2022-11-10T09:40:43.283Z,13.00
2022-11-10T09:43:19.418Z,13.20
2022-11-10T09:45:49.101Z,13.30
2022-11-10T09:48:31.491Z,13.30
2022-11-10T09:51:08.594Z,13.60
2022-11-10T09:53:44.848Z,13.50
2022-11-10T09:56:19.330Z,13.60
2022-11-10T09:58:46.936Z,13.70
2022-11-10T10:01:21.991Z,13.70
2022-11-10T10:04:00.441Z,13.80
2022-11-10T10:06:33.967Z,13.70
2022-11-10T10:09:42.329Z,13.70
2022-11-10T10:12:46.909Z,13.80
2022-11-10T10:15:28.295Z,13.90
2022-11-10T10:18:07.154Z,14.10
2022-11-10T10:20:46.013Z,14.20
2022-11-10T10:24:07.233Z,14.30
2022-11-10T10:26:29.065Z,14.30
2022-11-10T10:28:58.871Z,14.20
2022-11-10T10:31:53.583Z,14.10
2022-11-10T10:34:24.117Z,14.20
2022-11-10T10:36:51.407Z,14.10
2022-11-10T10:39:24.292Z,14.10
2022-11-10T10:41:51.033Z,14.40
2022-11-10T10:44:19.692Z,14.50
2022-11-10T10:46:47.875Z,14.50
2022-11-10T10:49:32.741Z,14.20
2022-11-10T10:52:24.711Z,14.10
2022-11-10T10:55:01.083Z,14.40
2022-11-10T10:57:31.655Z,14.40
2022-11-10T11:00:18.881Z,14.50
2022-11-10T11:03:06.399Z,14.80
2022-11-10T11:05:33.315Z,14.70
2022-11-10T11:08:01.757Z,14.70
2022-11-10T11:10:31.743Z,14.70
2022-11-10T11:13:23.229Z,14.50
2022-11-10T11:16:04.727Z,14.50
2022-11-10T11:18:32.707Z,14.50
2022-11-10T11:21:14.628Z,14.70
2022-11-10T11:24:08.612Z,14.80
2022-11-10T11:26:52.599Z,15.10
2022-11-10T11:29:40.721Z,14.60
2022-11-10T11:32:41.989Z,14.90
2022-11-10T11:35:36.019Z,15.10
2022-11-10T11:38:28.805Z,15.20
2022-11-10T11:41:14.140Z,15.40
2022-11-10T11:44:20.691Z,15.20
2022-11-10T11:47:09.127Z,15.20
2022-11-10T11:49:47.913Z,15.00
2022-11-10T11:52:36.238Z,15.00
2022-11-10T11:55:19.876Z,15.20
2022-11-10T11:58:08.327Z,15.10
2022-11-10T12:00:59.443Z,15.20
2022-11-10T12:03:37.614Z,15.30
2022-11-10T12:06:36.243Z,15.10
2022-11-10T12:09:15.741Z,15.40
2022-11-10T12:12:12.071Z,15.50
2022-11-10T12:14:58.436Z,15.30
2022-11-10T12:18:08.060Z,15.20
2022-11-10T12:20:59.189Z,15.30
2022-11-10T12:23:37.915Z,15.50
2022-11-10T12:26:53.801Z,15.60
2022-11-10T12:29:41.165Z,15.50
2022-11-10T12:32:32.280Z,15.30
2022-11-10T12:35:27.896Z,15.40
2022-11-10T12:38:14.209Z,15.30
2022-11-10T12:40:46.880Z,15.50
2022-11-10T12:43:33.958Z,15.40
2022-11-10T12:46:06.048Z,15.30
2022-11-10T12:48:56.055Z,15.20
2022-11-10T12:51:39.104Z,15.50
2022-11-10T12:54:13.829Z,15.70
2022-11-10T12:56:52.075Z,16.00
2022-11-10T12:59:21.837Z,15.90
2022-11-10T13:02:24.780Z,15.90
2022-11-10T13:05:14.503Z,15.50
2022-11-10T13:07:49.983Z,15.90
2022-11-10T13:10:23.392Z,16.00
2022-11-10T13:13:05.266Z,16.20
2022-11-10T13:15:37.845Z,16.70
2022-11-10T13:18:10.009Z,17.00
2022-11-10T13:20:39.802Z,17.10
2022-11-10T13:23:45.026Z,16.80
2022-11-10T13:26:32.423Z,16.80
2022-11-10T13:29:01.575Z,16.60
2022-11-10T13:31:28.273Z,16.30
2022-11-10T13:37:37.787Z,16.60
2022-11-10T13:40:23.648Z,16.60
2022-11-10T13:42:59.444Z,16.80
2022-11-10T13:45:55.116Z,16.60
2022-11-10T13:48:34.138Z,16.80
2022-11-10T13:51:30.400Z,17.00
2022-11-10T13:54:31.515Z,17.10
2022-11-10T13:57:25.150Z,16.80
2022-11-10T14:00:00.879Z,17.40
2022-11-10T14:02:42.379Z,17.40
2022-11-10T14:05:29.194Z,17.40
2022-11-10T14:08:04.472Z,17.00
2022-11-10T14:10:43.159Z,17.30
2022-11-10T14:13:35.226Z,16.60
2022-11-10T14:16:02.331Z,15.70
2022-11-10T14:18:55.557Z,15.60
2022-11-10T14:21:37.286Z,15.20
2022-11-10T14:24:13.678Z,15.00
2022-11-10T14:26:52.048Z,15.10
2022-11-10T14:29:26.792Z,15.10
2022-11-10T14:31:53.780Z,15.00
2022-11-10T14:34:23.645Z,14.70
2022-11-10T14:36:58.359Z,14.70
2022-11-10T14:39:35.281Z,14.60
2022-11-10T14:42:04.644Z,14.40
2022-11-10T14:44:32.494Z,14.30
2022-11-10T14:47:24.280Z,14.30
2022-11-10T14:50:26.915Z,14.20
2022-11-10T14:53:31.272Z,14.10
2022-11-10T14:55:59.940Z,13.90
2022-11-10T14:58:32.804Z,13.80
2022-11-10T15:01:00.537Z,13.80
2022-11-10T15:03:39.444Z,13.70
2022-11-10T15:06:09.888Z,13.50
2022-11-10T15:08:37.359Z,13.30
2022-11-10T15:11:04.249Z,13.20
2022-11-10T15:13:31.934Z,13.20
2022-11-10T15:16:27.847Z,13.00
2022-11-10T15:18:57.379Z,12.90
2022-11-10T15:21:34.044Z,12.80
2022-11-10T15:24:05.643Z,12.80
2022-11-10T15:26:38.180Z,12.70
2022-11-10T15:29:05.018Z,12.60
2022-11-10T15:31:33.416Z,12.60
2022-11-10T15:34:05.535Z,12.50
2022-11-10T15:36:35.851Z,12.40
2022-11-10T15:39:07.017Z,12.30
2022-11-10T15:41:35.531Z,12.20
2022-11-10T15:44:24.270Z,12.10
2022-11-10T15:46:55.555Z,12.10
2022-11-10T15:49:36.696Z,12.00
2022-11-10T15:52:11.192Z,11.90
2022-11-10T15:54:38.460Z,11.90
2022-11-10T15:57:13.887Z,11.90
2022-11-10T15:59:41.423Z,11.80
2022-11-10T16:02:23.583Z,11.80
2022-11-10T16:04:55.677Z,11.70
2022-11-10T16:07:25.822Z,11.60
2022-11-10T16:09:52.568Z,11.60
2022-11-10T16:12:22.265Z,11.50
2022-11-10T16:14:51.664Z,11.50
2022-11-10T16:17:19.040Z,11.50
2022-11-10T16:19:46.873Z,11.50
2022-11-10T16:22:14.238Z,11.40
2022-11-10T16:24:41.332Z,11.40
2022-11-10T16:27:12.623Z,11.40
2022-11-10T16:29:40.050Z,11.30
2022-11-10T16:32:07.015Z,11.30
2022-11-10T16:34:33.811Z,11.20
2022-11-10T16:37:00.788Z,11.20
2022-11-10T16:39:27.676Z,11.20
2022-11-10T16:41:54.450Z,11.20
2022-11-10T16:44:25.313Z,11.20
2022-11-10T16:46:55.903Z,11.10
2022-11-10T16:49:34.666Z,11.10
2022-11-10T16:52:13.523Z,11.10
2022-11-10T16:54:40.259Z,11.00
2022-11-10T16:57:14.936Z,11.00
2022-11-10T16:59:42.593Z,10.90
2022-11-10T17:02:34.774Z,11.00
2022-11-10T17:05:01.865Z,11.00
2022-11-10T17:07:29.092Z,11.00
2022-11-10T17:09:57.161Z,10.90
2022-11-10T17:12:23.898Z,10.90
2022-11-10T17:14:50.676Z,10.80
2022-11-10T17:17:19.405Z,10.80
2022-11-10T17:19:48.536Z,10.90
2022-11-10T17:22:18.721Z,10.70
2022-11-10T17:24:51.897Z,10.70
2022-11-10T17:27:20.065Z,10.70
2022-11-10T17:29:47.042Z,10.60
2022-11-10T17:32:13.813Z,10.50
2022-11-10T17:34:40.549Z,10.40
2022-11-10T17:37:13.164Z,10.30
2022-11-10T17:39:40.716Z,10.20
2022-11-10T17:42:12.810Z,10.10
2022-11-10T17:44:39.506Z,10.00
2022-11-10T17:47:06.264Z,9.90
2022-11-10T17:49:32.952Z,9.80
2022-11-10T17:51:59.648Z,9.70
2022-11-10T17:54:26.446Z,9.70
2022-11-10T17:56:53.120Z,9.70
2022-11-10T17:59:19.800Z,9.60
2022-11-10T18:01:46.631Z,9.60
2022-11-10T18:04:13.923Z,9.60
2022-11-10T18:06:40.718Z,9.60
2022-11-10T18:09:07.548Z,9.60
2022-11-10T18:11:34.311Z,9.60
2022-11-10T18:14:01.898Z,9.50
2022-11-10T18:16:28.632Z,9.50
2022-11-10T18:18:55.535Z,9.40
2022-11-10T18:21:22.281Z,9.40
2022-11-10T18:23:49.024Z,9.40
2022-11-10T18:26:15.709Z,9.40
2022-11-10T18:28:43.238Z,9.40
2022-11-10T18:31:12.690Z,9.30
2022-11-10T18:33:39.619Z,9.30
2022-11-10T18:36:06.767Z,9.30
2022-11-10T18:38:33.787Z,9.30
2022-11-10T18:41:23.876Z,9.30
2022-11-10T18:43:50.758Z,9.30
2022-11-10T18:46:17.535Z,9.30
2022-11-10T18:48:47.614Z,9.20
2022-11-10T18:51:16.661Z,9.20
2022-11-10T18:53:43.397Z,9.20
2022-11-10T18:56:10.369Z,9.20
2022-11-10T18:58:37.156Z,9.20
2022-11-10T19:01:04.667Z,9.20
2022-11-10T19:03:32.373Z,9.20
2022-11-10T19:05:59.740Z,9.20
2022-11-10T19:08:28.281Z,9.20
2022-11-10T19:10:56.233Z,9.20
2022-11-10T19:13:23.976Z,9.20
2022-11-10T19:15:50.989Z,9.20
2022-11-10T19:18:17.763Z,9.10
2022-11-10T19:20:44.545Z,9.10
2022-11-10T19:23:11.393Z,9.00
2022-11-10T19:25:38.157Z,9.00
2022-11-10T19:28:04.971Z,9.00
2022-11-10T19:30:31.782Z,9.00
2022-11-10T19:32:58.506Z,8.90
2022-11-10T19:35:25.238Z,8.90
2022-11-10T19:37:54.027Z,8.90
2022-11-10T19:40:21.554Z,8.80
2022-11-10T19:42:48.465Z,8.80
2022-11-10T19:45:16.597Z,8.80
2022-11-10T19:47:43.630Z,8.70
2022-11-10T19:50:10.337Z,8.70
2022-11-10T19:52:37.138Z,8.70
2022-11-10T19:55:04.150Z,8.70
2022-11-10T19:57:30.966Z,8.70
2022-11-10T19:59:57.732Z,8.70
2022-11-10T20:02:24.522Z,8.60
2022-11-10T20:05:10.172Z,8.60
2022-11-10T20:07:55.451Z,8.60
2022-11-10T20:10:22.722Z,8.50
2022-11-10T20:12:50.048Z,8.50
2022-11-10T20:15:17.118Z,8.40
2022-11-10T20:17:44.286Z,8.40
2022-11-10T20:20:11.336Z,8.30
2022-11-10T20:22:38.330Z,8.30
2022-11-10T20:25:05.620Z,8.30
2022-11-10T20:27:32.591Z,8.20
2022-11-10T20:30:00.297Z,8.20
2022-11-10T20:32:27.781Z,8.10
2022-11-10T20:34:54.625Z,8.10
2022-11-10T20:37:21.576Z,8.00
2022-11-10T20:39:48.650Z,8.00
2022-11-10T20:42:15.587Z,8.00
2022-11-10T20:44:42.445Z,8.00
2022-11-10T20:47:09.348Z,8.00
2022-11-10T20:49:36.305Z,7.90
2022-11-10T20:52:03.396Z,7.90
2022-11-10T20:54:30.527Z,7.90
2022-11-10T20:56:57.412Z,7.90
2022-11-10T20:59:24.364Z,7.90
2022-11-10T21:01:51.260Z,7.80
2022-11-10T21:04:18.473Z,7.80
2022-11-10T21:06:45.723Z,7.80
2022-11-10T21:09:12.697Z,7.80
2022-11-10T21:11:58.297Z,7.70
2022-11-10T21:14:25.194Z,7.70
2022-11-10T21:16:52.063Z,7.70
2022-11-10T21:19:18.956Z,7.70
2022-11-10T21:21:46.189Z,7.70
2022-11-10T21:24:13.391Z,7.70
2022-11-10T21:26:41.546Z,7.80
2022-11-10T21:29:09.117Z,7.90
2022-11-10T21:31:36.075Z,7.80
2022-11-10T21:34:03.060Z,7.90
2022-11-10T21:36:30.058Z,7.90
2022-11-10T21:38:58.617Z,7.80
2022-11-10T21:41:26.611Z,7.80
2022-11-10T21:43:53.826Z,7.80
2022-11-10T21:46:21.236Z,7.80
2022-11-10T21:48:50.351Z,7.70
2022-11-10T21:51:19.968Z,7.80
2022-11-10T21:53:49.649Z,7.70
2022-11-10T21:56:25.167Z,7.70
2022-11-10T21:58:58.205Z,7.60
2022-11-10T22:01:24.955Z,7.60
2022-11-10T22:03:52.113Z,7.60
2022-11-10T22:06:19.328Z,7.60
2022-11-10T22:08:47.348Z,7.70
2022-11-10T22:11:39.811Z,7.60
2022-11-10T22:14:34.899Z,7.60
2022-11-10T22:17:21.627Z,7.50
2022-11-10T22:19:48.434Z,7.40
2022-11-10T22:22:15.249Z,7.40
2022-11-10T22:24:41.977Z,7.40
2022-11-10T22:27:08.806Z,7.40
2022-11-10T22:29:35.644Z,7.30
2022-11-10T22:32:03.234Z,7.30
2022-11-10T22:34:30.178Z,7.30
2022-11-10T22:36:58.341Z,7.20
2022-11-10T22:39:48.114Z,7.20
2022-11-10T22:42:33.478Z,7.20
2022-11-10T22:45:00.391Z,7.20
2022-11-10T22:47:47.168Z,7.10
2022-11-10T22:50:17.063Z,7.10
2022-11-10T22:52:43.885Z,7.10
2022-11-10T22:55:10.643Z,7.10
2022-11-10T22:57:37.402Z,7.10
2022-11-10T23:00:05.333Z,7.20
2022-11-10T23:02:32.126Z,7.10
2022-11-10T23:04:58.853Z,7.20
2022-11-10T23:07:25.637Z,7.00
2022-11-10T23:09:52.392Z,7.00
2022-11-10T23:12:19.075Z,6.90
2022-11-10T23:14:45.810Z,6.90
2022-11-10T23:17:12.545Z,6.90
2022-11-10T23:19:42.382Z,6.90
2022-11-10T23:22:09.106Z,6.90
2022-11-10T23:24:35.837Z,6.90
2022-11-10T23:27:02.532Z,6.80
2022-11-10T23:29:29.278Z,6.90
2022-11-10T23:31:55.993Z,6.80
2022-11-10T23:34:22.711Z,6.80
2022-11-10T23:36:49.471Z,6.80
2022-11-10T23:39:16.262Z,6.80
2022-11-10T23:41:43.000Z,6.70
2022-11-10T23:44:09.692Z,6.70
2022-11-10T23:46:37.309Z,6.70
2022-11-10T23:49:04.224Z,6.70
2022-11-10T23:51:30.974Z,6.60
2022-11-10T23:53:57.716Z,6.60
2022-11-10T23:56:24.469Z,6.60
2022-11-10T23:58:51.207Z,6.70
